sensor_id;sensor_type;location;lat;lon;timestamp;P1;durP1;ratioP1;P2;durP2;ratioP2
40827;SDS011;26549;50.918;5.338;2023-04-24T00:01:52;10.45;;;4.70;;
40827;SDS011;26549;50.918;5.338;2023-04-24T00:04:20;9.07;;;5.47;;
40827;SDS011;26549;50.918;5.338;2023-04-24T00:06:54;9.57;;;5.78;;
40827;SDS011;26549;50.918;5.338;2023-04-24T00:12:14;12.48;;;5.88;;
40827;SDS011;26549;50.918;5.338;2023-04-24T00:14:48;7.50;;;5.18;;
40827;SDS011;26549;50.918;5.338;2023-04-24T00:17:13;13.48;;;5.95;;
40827;SDS011;26549;50.918;5.338;2023-04-24T00:19:39;8.80;;;5.63;;
40827;SDS011;26549;50.918;5.338;2023-04-24T00:22:06;7.88;;;5.93;;
40827;SDS011;26549;50.918;5.338;2023-04-24T00:24:33;12.07;;;6.85;;
40827;SDS011;26549;50.918;5.338;2023-04-24T00:27:04;11.40;;;5.50;;
40827;SDS011;26549;50.918;5.338;2023-04-24T00:29:32;10.38;;;6.60;;
40827;SDS011;26549;50.918;5.338;2023-04-24T00:32:08;8.88;;;5.90;;
40827;SDS011;26549;50.918;5.338;2023-04-24T00:34:46;9.98;;;6.22;;
40827;SDS011;26549;50.918;5.338;2023-04-24T00:43:27;11.25;;;7.90;;
40827;SDS011;26549;50.918;5.338;2023-04-24T00:45:54;12.18;;;6.82;;
40827;SDS011;26549;50.918;5.338;2023-04-24T00:48:20;9.18;;;7.32;;
40827;SDS011;26549;50.918;5.338;2023-04-24T00:50:47;12.90;;;7.80;;
40827;SDS011;26549;50.918;5.338;2023-04-24T00:53:12;12.98;;;7.90;;
40827;SDS011;26549;50.918;5.338;2023-04-24T00:55:49;12.30;;;7.28;;
40827;SDS011;26549;50.918;5.338;2023-04-24T00:58:37;12.52;;;7.38;;
40827;SDS011;26549;50.918;5.338;2023-04-24T01:01:06;11.27;;;7.80;;
40827;SDS011;26549;50.918;5.338;2023-04-24T01:03:35;11.65;;;8.25;;
40827;SDS011;26549;50.918;5.338;2023-04-24T01:09:00;11.73;;;8.13;;
40827;SDS011;26549;50.918;5.338;2023-04-24T01:11:28;12.80;;;7.43;;
40827;SDS011;26549;50.918;5.338;2023-04-24T01:13:56;14.20;;;6.60;;
40827;SDS011;26549;50.918;5.338;2023-04-24T01:16:22;16.75;;;7.90;;
40827;SDS011;26549;50.918;5.338;2023-04-24T01:18:51;12.40;;;8.20;;
40827;SDS011;26549;50.918;5.338;2023-04-24T01:24:13;10.43;;;8.40;;
40827;SDS011;26549;50.918;5.338;2023-04-24T01:26:55;14.80;;;8.50;;
40827;SDS011;26549;50.918;5.338;2023-04-24T01:29:29;14.45;;;7.75;;
40827;SDS011;26549;50.918;5.338;2023-04-24T01:32:09;12.95;;;6.80;;
40827;SDS011;26549;50.918;5.338;2023-04-24T01:35:00;13.73;;;7.88;;
40827;SDS011;26549;50.918;5.338;2023-04-24T01:37:47;10.73;;;6.72;;
40827;SDS011;26549;50.918;5.338;2023-04-24T01:40:12;11.88;;;7.10;;
40827;SDS011;26549;50.918;5.338;2023-04-24T01:42:40;13.38;;;7.10;;
40827;SDS011;26549;50.918;5.338;2023-04-24T01:45:07;13.25;;;6.85;;
40827;SDS011;26549;50.918;5.338;2023-04-24T01:50:18;13.35;;;7.75;;
40827;SDS011;26549;50.918;5.338;2023-04-24T01:52:44;14.05;;;6.30;;
40827;SDS011;26549;50.918;5.338;2023-04-24T01:55:16;15.70;;;7.45;;
40827;SDS011;26549;50.918;5.338;2023-04-24T01:58:01;12.87;;;6.70;;
40827;SDS011;26549;50.918;5.338;2023-04-24T02:03:02;16.38;;;7.57;;
40827;SDS011;26549;50.918;5.338;2023-04-24T02:05:29;13.32;;;8.10;;
40827;SDS011;26549;50.918;5.338;2023-04-24T02:07:57;13.50;;;8.48;;
40827;SDS011;26549;50.918;5.338;2023-04-24T02:10:24;11.77;;;7.88;;
40827;SDS011;26549;50.918;5.338;2023-04-24T02:12:56;19.17;;;7.57;;
40827;SDS011;26549;50.918;5.338;2023-04-24T02:15:27;15.93;;;7.80;;
40827;SDS011;26549;50.918;5.338;2023-04-24T02:17:57;9.27;;;7.13;;
40827;SDS011;26549;50.918;5.338;2023-04-24T02:20:23;17.75;;;9.30;;
40827;SDS011;26549;50.918;5.338;2023-04-24T02:22:50;13.48;;;8.10;;
40827;SDS011;26549;50.918;5.338;2023-04-24T02:25:26;11.77;;;7.32;;
40827;SDS011;26549;50.918;5.338;2023-04-24T02:27:52;13.02;;;7.18;;
40827;SDS011;26549;50.918;5.338;2023-04-24T02:30:38;13.73;;;8.23;;
40827;SDS011;26549;50.918;5.338;2023-04-24T02:33:09;12.07;;;7.18;;
40827;SDS011;26549;50.918;5.338;2023-04-24T02:35:37;12.93;;;7.60;;
40827;SDS011;26549;50.918;5.338;2023-04-24T02:38:04;9.85;;;6.68;;
40827;SDS011;26549;50.918;5.338;2023-04-24T02:43:19;11.32;;;7.18;;
40827;SDS011;26549;50.918;5.338;2023-04-24T02:45:51;16.27;;;9.60;;
40827;SDS011;26549;50.918;5.338;2023-04-24T02:48:33;12.90;;;7.53;;
40827;SDS011;26549;50.918;5.338;2023-04-24T02:51:17;10.90;;;7.07;;
40827;SDS011;26549;50.918;5.338;2023-04-24T02:56:11;12.75;;;7.38;;
40827;SDS011;26549;50.918;5.338;2023-04-24T02:58:38;11.20;;;8.15;;
40827;SDS011;26549;50.918;5.338;2023-04-24T03:01:03;10.60;;;7.15;;
40827;SDS011;26549;50.918;5.338;2023-04-24T03:03:30;9.95;;;6.35;;
40827;SDS011;26549;50.918;5.338;2023-04-24T03:05:55;10.82;;;7.68;;
40827;SDS011;26549;50.918;5.338;2023-04-24T03:08:22;14.50;;;8.23;;
40827;SDS011;26549;50.918;5.338;2023-04-24T03:10:51;14.63;;;7.85;;
40827;SDS011;26549;50.918;5.338;2023-04-24T03:13:17;11.77;;;7.35;;
40827;SDS011;26549;50.918;5.338;2023-04-24T03:15:48;14.88;;;8.25;;
40827;SDS011;26549;50.918;5.338;2023-04-24T03:18:36;10.18;;;6.63;;
40827;SDS011;26549;50.918;5.338;2023-04-24T03:21:02;10.88;;;6.78;;
40827;SDS011;26549;50.918;5.338;2023-04-24T03:23:28;11.75;;;8.13;;
40827;SDS011;26549;50.918;5.338;2023-04-24T03:26:03;9.38;;;6.80;;
40827;SDS011;26549;50.918;5.338;2023-04-24T03:28:54;10.15;;;7.75;;
40827;SDS011;26549;50.918;5.338;2023-04-24T03:31:25;9.00;;;6.43;;
40827;SDS011;26549;50.918;5.338;2023-04-24T03:34:03;10.73;;;7.53;;
40827;SDS011;26549;50.918;5.338;2023-04-24T03:36:29;12.27;;;7.32;;
40827;SDS011;26549;50.918;5.338;2023-04-24T03:38:56;9.07;;;6.47;;
40827;SDS011;26549;50.918;5.338;2023-04-24T03:41:21;10.23;;;7.03;;
40827;SDS011;26549;50.918;5.338;2023-04-24T03:44:09;10.27;;;6.45;;
40827;SDS011;26549;50.918;5.338;2023-04-24T03:46:44;8.63;;;6.93;;
40827;SDS011;26549;50.918;5.338;2023-04-24T03:49:10;8.65;;;6.88;;
40827;SDS011;26549;50.918;5.338;2023-04-24T03:51:47;11.48;;;6.82;;
40827;SDS011;26549;50.918;5.338;2023-04-24T03:54:13;10.48;;;6.90;;
40827;SDS011;26549;50.918;5.338;2023-04-24T03:56:39;9.07;;;7.00;;
40827;SDS011;26549;50.918;5.338;2023-04-24T03:59:05;10.27;;;5.93;;
40827;SDS011;26549;50.918;5.338;2023-04-24T04:01:39;8.65;;;6.35;;
40827;SDS011;26549;50.918;5.338;2023-04-24T04:06:42;8.23;;;6.22;;
40827;SDS011;26549;50.918;5.338;2023-04-24T04:09:16;9.40;;;6.38;;
40827;SDS011;26549;50.918;5.338;2023-04-24T04:11:54;9.80;;;6.72;;
40827;SDS011;26549;50.918;5.338;2023-04-24T04:14:21;11.13;;;6.45;;
40827;SDS011;26549;50.918;5.338;2023-04-24T04:20:17;7.63;;;5.60;;
40827;SDS011;26549;50.918;5.338;2023-04-24T04:22:43;8.07;;;6.25;;
40827;SDS011;26549;50.918;5.338;2023-04-24T04:25:29;8.10;;;6.15;;
40827;SDS011;26549;50.918;5.338;2023-04-24T04:28:02;9.43;;;5.47;;
40827;SDS011;26549;50.918;5.338;2023-04-24T04:30:28;9.32;;;5.72;;
40827;SDS011;26549;50.918;5.338;2023-04-24T04:32:58;9.55;;;5.95;;
40827;SDS011;26549;50.918;5.338;2023-04-24T04:35:24;9.82;;;6.18;;
40827;SDS011;26549;50.918;5.338;2023-04-24T04:37:50;9.75;;;5.55;;
40827;SDS011;26549;50.918;5.338;2023-04-24T04:40:16;9.32;;;5.22;;
40827;SDS011;26549;50.918;5.338;2023-04-24T04:42:42;8.82;;;6.18;;
40827;SDS011;26549;50.918;5.338;2023-04-24T04:45:11;8.10;;;5.32;;
40827;SDS011;26549;50.918;5.338;2023-04-24T04:47:36;9.32;;;5.70;;
40827;SDS011;26549;50.918;5.338;2023-04-24T04:50:03;10.23;;;5.95;;
40827;SDS011;26549;50.918;5.338;2023-04-24T04:52:31;8.45;;;5.25;;
40827;SDS011;26549;50.918;5.338;2023-04-24T04:54:57;13.07;;;6.57;;
40827;SDS011;26549;50.918;5.338;2023-04-24T04:57:22;8.35;;;6.07;;
40827;SDS011;26549;50.918;5.338;2023-04-24T04:59:49;8.68;;;6.28;;
40827;SDS011;26549;50.918;5.338;2023-04-24T05:02:14;7.97;;;5.47;;
40827;SDS011;26549;50.918;5.338;2023-04-24T05:04:40;6.72;;;5.45;;
40827;SDS011;26549;50.918;5.338;2023-04-24T05:07:06;6.45;;;4.78;;
40827;SDS011;26549;50.918;5.338;2023-04-24T05:09:32;9.40;;;4.57;;
40827;SDS011;26549;50.918;5.338;2023-04-24T05:11:58;5.55;;;4.85;;
40827;SDS011;26549;50.918;5.338;2023-04-24T05:14:23;9.50;;;5.07;;
40827;SDS011;26549;50.918;5.338;2023-04-24T05:16:49;6.40;;;5.43;;
40827;SDS011;26549;50.918;5.338;2023-04-24T05:19:16;10.20;;;5.03;;
40827;SDS011;26549;50.918;5.338;2023-04-24T05:21:44;10.45;;;5.80;;
40827;SDS011;26549;50.918;5.338;2023-04-24T05:24:13;7.13;;;4.25;;
40827;SDS011;26549;50.918;5.338;2023-04-24T05:26:40;7.75;;;5.32;;
40827;SDS011;26549;50.918;5.338;2023-04-24T05:29:07;7.60;;;4.65;;
40827;SDS011;26549;50.918;5.338;2023-04-24T05:31:33;8.05;;;5.28;;
40827;SDS011;26549;50.918;5.338;2023-04-24T05:34:02;7.07;;;4.78;;
40827;SDS011;26549;50.918;5.338;2023-04-24T05:36:28;9.18;;;4.30;;
40827;SDS011;26549;50.918;5.338;2023-04-24T05:38:54;12.63;;;4.80;;
40827;SDS011;26549;50.918;5.338;2023-04-24T05:41:20;6.35;;;4.10;;
40827;SDS011;26549;50.918;5.338;2023-04-24T05:43:48;6.75;;;4.35;;
40827;SDS011;26549;50.918;5.338;2023-04-24T05:46:15;5.60;;;4.30;;
40827;SDS011;26549;50.918;5.338;2023-04-24T05:48:41;4.40;;;2.97;;
40827;SDS011;26549;50.918;5.338;2023-04-24T05:51:06;3.90;;;2.78;;
40827;SDS011;26549;50.918;5.338;2023-04-24T05:53:32;2.38;;;2.13;;
40827;SDS011;26549;50.918;5.338;2023-04-24T05:55:58;1.92;;;1.75;;
40827;SDS011;26549;50.918;5.338;2023-04-24T05:58:24;9.18;;;2.90;;
40827;SDS011;26549;50.918;5.338;2023-04-24T06:00:50;4.70;;;2.70;;
40827;SDS011;26549;50.918;5.338;2023-04-24T06:03:16;3.53;;;3.10;;
40827;SDS011;26549;50.918;5.338;2023-04-24T06:05:43;3.63;;;2.90;;
40827;SDS011;26549;50.918;5.338;2023-04-24T06:08:11;5.28;;;3.45;;
40827;SDS011;26549;50.918;5.338;2023-04-24T06:10:37;6.18;;;3.35;;
40827;SDS011;26549;50.918;5.338;2023-04-24T06:13:05;5.05;;;3.58;;
40827;SDS011;26549;50.918;5.338;2023-04-24T06:15:32;5.03;;;3.50;;
40827;SDS011;26549;50.918;5.338;2023-04-24T06:17:58;5.20;;;3.53;;
40827;SDS011;26549;50.918;5.338;2023-04-24T06:20:24;7.30;;;4.07;;
40827;SDS011;26549;50.918;5.338;2023-04-24T06:22:50;5.97;;;4.22;;
40827;SDS011;26549;50.918;5.338;2023-04-24T06:25:16;5.43;;;4.13;;
40827;SDS011;26549;50.918;5.338;2023-04-24T06:27:42;11.27;;;3.72;;
40827;SDS011;26549;50.918;5.338;2023-04-24T06:30:08;5.78;;;3.38;;
40827;SDS011;26549;50.918;5.338;2023-04-24T06:32:34;5.40;;;3.60;;
40827;SDS011;26549;50.918;5.338;2023-04-24T06:35:01;8.68;;;4.53;;
40827;SDS011;26549;50.918;5.338;2023-04-24T06:37:27;5.22;;;3.80;;
40827;SDS011;26549;50.918;5.338;2023-04-24T06:39:52;6.65;;;3.90;;
40827;SDS011;26549;50.918;5.338;2023-04-24T06:42:19;6.15;;;4.13;;
40827;SDS011;26549;50.918;5.338;2023-04-24T06:44:50;7.00;;;3.88;;
40827;SDS011;26549;50.918;5.338;2023-04-24T06:47:18;6.20;;;4.30;;
40827;SDS011;26549;50.918;5.338;2023-04-24T06:49:45;6.65;;;3.72;;
40827;SDS011;26549;50.918;5.338;2023-04-24T06:52:11;7.35;;;4.05;;
40827;SDS011;26549;50.918;5.338;2023-04-24T06:54:36;7.28;;;4.55;;
40827;SDS011;26549;50.918;5.338;2023-04-24T06:57:03;6.70;;;4.03;;
40827;SDS011;26549;50.918;5.338;2023-04-24T06:59:29;5.95;;;4.40;;
40827;SDS011;26549;50.918;5.338;2023-04-24T07:04:27;7.50;;;5.60;;
40827;SDS011;26549;50.918;5.338;2023-04-24T07:06:53;10.30;;;5.40;;
40827;SDS011;26549;50.918;5.338;2023-04-24T07:09:24;7.30;;;5.40;;
40827;SDS011;26549;50.918;5.338;2023-04-24T07:11:51;8.75;;;5.30;;
40827;SDS011;26549;50.918;5.338;2023-04-24T07:14:18;8.23;;;5.53;;
40827;SDS011;26549;50.918;5.338;2023-04-24T07:16:45;10.50;;;6.47;;
40827;SDS011;26549;50.918;5.338;2023-04-24T07:19:13;9.27;;;5.65;;
40827;SDS011;26549;50.918;5.338;2023-04-24T07:21:39;11.45;;;5.78;;
40827;SDS011;26549;50.918;5.338;2023-04-24T07:24:05;8.00;;;5.22;;
40827;SDS011;26549;50.918;5.338;2023-04-24T07:26:35;8.90;;;5.35;;
40827;SDS011;26549;50.918;5.338;2023-04-24T07:29:03;9.00;;;4.95;;
40827;SDS011;26549;50.918;5.338;2023-04-24T07:31:28;7.78;;;5.22;;
40827;SDS011;26549;50.918;5.338;2023-04-24T07:33:55;9.38;;;5.57;;
40827;SDS011;26549;50.918;5.338;2023-04-24T07:36:23;9.55;;;6.18;;
40827;SDS011;26549;50.918;5.338;2023-04-24T07:38:49;11.07;;;6.45;;
40827;SDS011;26549;50.918;5.338;2023-04-24T07:41:15;8.30;;;6.25;;
40827;SDS011;26549;50.918;5.338;2023-04-24T07:43:42;9.85;;;5.43;;
40827;SDS011;26549;50.918;5.338;2023-04-24T07:46:08;12.00;;;6.53;;
40827;SDS011;26549;50.918;5.338;2023-04-24T07:48:34;10.52;;;6.28;;
40827;SDS011;26549;50.918;5.338;2023-04-24T07:51:00;8.95;;;5.72;;
40827;SDS011;26549;50.918;5.338;2023-04-24T07:53:26;11.63;;;6.90;;
40827;SDS011;26549;50.918;5.338;2023-04-24T07:55:53;13.50;;;6.63;;
40827;SDS011;26549;50.918;5.338;2023-04-24T07:58:22;9.15;;;7.32;;
40827;SDS011;26549;50.918;5.338;2023-04-24T08:00:49;14.50;;;7.50;;
40827;SDS011;26549;50.918;5.338;2023-04-24T08:03:15;15.55;;;9.18;;
40827;SDS011;26549;50.918;5.338;2023-04-24T08:05:44;11.32;;;8.65;;
40827;SDS011;26549;50.918;5.338;2023-04-24T08:08:10;9.88;;;6.47;;
40827;SDS011;26549;50.918;5.338;2023-04-24T08:10:36;13.70;;;6.55;;
40827;SDS011;26549;50.918;5.338;2023-04-24T08:13:02;11.20;;;6.63;;
40827;SDS011;26549;50.918;5.338;2023-04-24T08:15:28;10.73;;;7.18;;
40827;SDS011;26549;50.918;5.338;2023-04-24T08:17:54;11.35;;;7.15;;
40827;SDS011;26549;50.918;5.338;2023-04-24T08:20:20;8.82;;;6.78;;
40827;SDS011;26549;50.918;5.338;2023-04-24T08:22:45;12.10;;;7.05;;
40827;SDS011;26549;50.918;5.338;2023-04-24T08:25:14;9.50;;;5.75;;
40827;SDS011;26549;50.918;5.338;2023-04-24T08:27:40;9.68;;;6.60;;
40827;SDS011;26549;50.918;5.338;2023-04-24T08:30:06;10.43;;;6.20;;
40827;SDS011;26549;50.918;5.338;2023-04-24T08:32:33;10.43;;;5.45;;
40827;SDS011;26549;50.918;5.338;2023-04-24T08:34:59;10.10;;;5.68;;
40827;SDS011;26549;50.918;5.338;2023-04-24T08:37:25;10.45;;;5.88;;
40827;SDS011;26549;50.918;5.338;2023-04-24T08:39:53;9.98;;;5.82;;
40827;SDS011;26549;50.918;5.338;2023-04-24T08:42:21;7.45;;;5.28;;
40827;SDS011;26549;50.918;5.338;2023-04-24T08:44:49;7.28;;;4.18;;
40827;SDS011;26549;50.918;5.338;2023-04-24T08:47:17;10.70;;;3.88;;
40827;SDS011;26549;50.918;5.338;2023-04-24T08:49:44;8.93;;;4.32;;
40827;SDS011;26549;50.918;5.338;2023-04-24T08:52:12;8.48;;;4.20;;
40827;SDS011;26549;50.918;5.338;2023-04-24T08:54:41;8.07;;;4.32;;
40827;SDS011;26549;50.918;5.338;2023-04-24T08:57:08;7.18;;;3.28;;
40827;SDS011;26549;50.918;5.338;2023-04-24T08:59:36;10.40;;;4.32;;
40827;SDS011;26549;50.918;5.338;2023-04-24T09:02:04;9.88;;;4.07;;
40827;SDS011;26549;50.918;5.338;2023-04-24T09:04:32;7.75;;;3.97;;
40827;SDS011;26549;50.918;5.338;2023-04-24T09:06:58;8.40;;;3.65;;
40827;SDS011;26549;50.918;5.338;2023-04-24T09:09:25;7.68;;;3.33;;
40827;SDS011;26549;50.918;5.338;2023-04-24T09:11:55;8.48;;;3.80;;
40827;SDS011;26549;50.918;5.338;2023-04-24T09:14:22;7.43;;;3.10;;
40827;SDS011;26549;50.918;5.338;2023-04-24T09:16:49;12.23;;;4.30;;
40827;SDS011;26549;50.918;5.338;2023-04-24T09:19:16;6.07;;;3.92;;
40827;SDS011;26549;50.918;5.338;2023-04-24T09:21:42;5.43;;;2.90;;
40827;SDS011;26549;50.918;5.338;2023-04-24T09:24:18;8.38;;;2.88;;
40827;SDS011;26549;50.918;5.338;2023-04-24T09:26:49;7.85;;;2.92;;
40827;SDS011;26549;50.918;5.338;2023-04-24T09:29:22;7.38;;;2.70;;
40827;SDS011;26549;50.918;5.338;2023-04-24T09:31:48;11.75;;;3.53;;
40827;SDS011;26549;50.918;5.338;2023-04-24T09:34:14;7.60;;;3.40;;
40827;SDS011;26549;50.918;5.338;2023-04-24T09:36:44;9.60;;;4.10;;
40827;SDS011;26549;50.918;5.338;2023-04-24T09:39:13;7.30;;;3.67;;
40827;SDS011;26549;50.918;5.338;2023-04-24T09:41:55;9.93;;;4.63;;
40827;SDS011;26549;50.918;5.338;2023-04-24T09:44:26;10.23;;;5.45;;
40827;SDS011;26549;50.918;5.338;2023-04-24T09:46:56;9.98;;;4.97;;
40827;SDS011;26549;50.918;5.338;2023-04-24T09:49:24;9.18;;;4.32;;
40827;SDS011;26549;50.918;5.338;2023-04-24T09:52:02;9.60;;;4.70;;
40827;SDS011;26549;50.918;5.338;2023-04-24T09:54:29;7.63;;;4.05;;
40827;SDS011;26549;50.918;5.338;2023-04-24T09:56:55;10.93;;;6.00;;
40827;SDS011;26549;50.918;5.338;2023-04-24T09:59:21;12.93;;;5.10;;
40827;SDS011;26549;50.918;5.338;2023-04-24T10:01:48;10.80;;;4.75;;
40827;SDS011;26549;50.918;5.338;2023-04-24T10:04:15;7.82;;;4.30;;
40827;SDS011;26549;50.918;5.338;2023-04-24T10:06:43;16.27;;;5.40;;
40827;SDS011;26549;50.918;5.338;2023-04-24T10:09:10;10.30;;;4.57;;
40827;SDS011;26549;50.918;5.338;2023-04-24T10:11:41;15.48;;;4.72;;
40827;SDS011;26549;50.918;5.338;2023-04-24T10:14:13;7.03;;;3.78;;
40827;SDS011;26549;50.918;5.338;2023-04-24T10:16:43;11.95;;;3.78;;
40827;SDS011;26549;50.918;5.338;2023-04-24T10:19:13;10.93;;;3.58;;
40827;SDS011;26549;50.918;5.338;2023-04-24T10:21:41;11.35;;;3.63;;
40827;SDS011;26549;50.918;5.338;2023-04-24T10:24:13;11.02;;;4.28;;
40827;SDS011;26549;50.918;5.338;2023-04-24T10:26:41;9.45;;;4.15;;
40827;SDS011;26549;50.918;5.338;2023-04-24T10:29:11;9.18;;;3.55;;
40827;SDS011;26549;50.918;5.338;2023-04-24T10:31:39;6.30;;;3.53;;
40827;SDS011;26549;50.918;5.338;2023-04-24T10:34:09;8.70;;;3.83;;
40827;SDS011;26549;50.918;5.338;2023-04-24T10:36:37;8.50;;;3.53;;
40827;SDS011;26549;50.918;5.338;2023-04-24T10:39:09;10.35;;;4.10;;
40827;SDS011;26549;50.918;5.338;2023-04-24T10:41:39;14.18;;;4.15;;
40827;SDS011;26549;50.918;5.338;2023-04-24T10:44:09;8.18;;;4.05;;
40827;SDS011;26549;50.918;5.338;2023-04-24T10:46:37;9.00;;;3.33;;
40827;SDS011;26549;50.918;5.338;2023-04-24T10:49:07;6.40;;;2.80;;
40827;SDS011;26549;50.918;5.338;2023-04-24T10:51:44;7.25;;;3.72;;
40827;SDS011;26549;50.918;5.338;2023-04-24T10:54:23;8.02;;;3.72;;
40827;SDS011;26549;50.918;5.338;2023-04-24T10:59:49;13.35;;;3.78;;
40827;SDS011;26549;50.918;5.338;2023-04-24T11:02:17;10.38;;;3.78;;
40827;SDS011;26549;50.918;5.338;2023-04-24T11:04:44;10.27;;;4.40;;
40827;SDS011;26549;50.918;5.338;2023-04-24T11:07:11;7.55;;;3.50;;
40827;SDS011;26549;50.918;5.338;2023-04-24T11:09:37;7.00;;;3.33;;
40827;SDS011;26549;50.918;5.338;2023-04-24T11:12:09;7.47;;;4.13;;
40827;SDS011;26549;50.918;5.338;2023-04-24T11:17:29;5.45;;;2.63;;
40827;SDS011;26549;50.918;5.338;2023-04-24T11:20:09;6.28;;;3.15;;
40827;SDS011;26549;50.918;5.338;2023-04-24T11:22:37;7.53;;;3.13;;
40827;SDS011;26549;50.918;5.338;2023-04-24T11:25:07;6.57;;;2.97;;
40827;SDS011;26549;50.918;5.338;2023-04-24T11:27:43;4.28;;;2.38;;
40827;SDS011;26549;50.918;5.338;2023-04-24T11:30:17;8.57;;;2.55;;
40827;SDS011;26549;50.918;5.338;2023-04-24T11:32:48;9.02;;;4.07;;
40827;SDS011;26549;50.918;5.338;2023-04-24T11:37:47;10.32;;;2.72;;
40827;SDS011;26549;50.918;5.338;2023-04-24T11:40:15;8.35;;;2.63;;
40827;SDS011;26549;50.918;5.338;2023-04-24T11:42:47;6.63;;;2.88;;
40827;SDS011;26549;50.918;5.338;2023-04-24T11:47:41;4.68;;;2.47;;
40827;SDS011;26549;50.918;5.338;2023-04-24T11:50:09;4.90;;;3.03;;
40827;SDS011;26549;50.918;5.338;2023-04-24T11:52:40;10.52;;;2.95;;
40827;SDS011;26549;50.918;5.338;2023-04-24T11:55:12;16.60;;;3.03;;
40827;SDS011;26549;50.918;5.338;2023-04-24T11:57:56;5.45;;;2.53;;
40827;SDS011;26549;50.918;5.338;2023-04-24T12:03:03;3.08;;;2.08;;
40827;SDS011;26549;50.918;5.338;2023-04-24T12:05:33;5.32;;;3.03;;
40827;SDS011;26549;50.918;5.338;2023-04-24T12:07:59;5.95;;;3.38;;
40827;SDS011;26549;50.918;5.338;2023-04-24T12:10:26;4.05;;;1.92;;
40827;SDS011;26549;50.918;5.338;2023-04-24T12:12:54;5.90;;;2.42;;
40827;SDS011;26549;50.918;5.338;2023-04-24T12:15:22;5.45;;;1.90;;
40827;SDS011;26549;50.918;5.338;2023-04-24T12:17:49;9.63;;;2.05;;
40827;SDS011;26549;50.918;5.338;2023-04-24T12:20:16;3.80;;;2.40;;
40827;SDS011;26549;50.918;5.338;2023-04-24T12:22:43;5.60;;;2.67;;
40827;SDS011;26549;50.918;5.338;2023-04-24T12:25:11;3.38;;;1.80;;
40827;SDS011;26549;50.918;5.338;2023-04-24T12:27:37;5.40;;;2.40;;
40827;SDS011;26549;50.918;5.338;2023-04-24T12:30:04;7.03;;;2.33;;
40827;SDS011;26549;50.918;5.338;2023-04-24T12:32:31;4.18;;;2.30;;
40827;SDS011;26549;50.918;5.338;2023-04-24T12:34:57;4.22;;;2.42;;
40827;SDS011;26549;50.918;5.338;2023-04-24T12:37:24;6.00;;;2.53;;
40827;SDS011;26549;50.918;5.338;2023-04-24T12:40:04;5.38;;;2.28;;
40827;SDS011;26549;50.918;5.338;2023-04-24T12:42:33;4.97;;;2.15;;
40827;SDS011;26549;50.918;5.338;2023-04-24T12:45:04;3.58;;;1.80;;
40827;SDS011;26549;50.918;5.338;2023-04-24T12:47:31;8.43;;;2.22;;
40827;SDS011;26549;50.918;5.338;2023-04-24T12:49:59;4.43;;;2.70;;
40827;SDS011;26549;50.918;5.338;2023-04-24T12:52:27;4.78;;;1.92;;
40827;SDS011;26549;50.918;5.338;2023-04-24T12:54:56;6.55;;;2.00;;
40827;SDS011;26549;50.918;5.338;2023-04-24T12:57:25;4.78;;;2.13;;
40827;SDS011;26549;50.918;5.338;2023-04-24T12:59:56;3.72;;;2.17;;
40827;SDS011;26549;50.918;5.338;2023-04-24T13:02:29;8.68;;;2.95;;
40827;SDS011;26549;50.918;5.338;2023-04-24T13:04:56;4.22;;;2.15;;
40827;SDS011;26549;50.918;5.338;2023-04-24T13:07:26;3.85;;;1.92;;
40827;SDS011;26549;50.918;5.338;2023-04-24T13:09:55;6.22;;;2.50;;
40827;SDS011;26549;50.918;5.338;2023-04-24T13:12:22;8.35;;;2.47;;
40827;SDS011;26549;50.918;5.338;2023-04-24T13:14:51;4.00;;;2.28;;
40827;SDS011;26549;50.918;5.338;2023-04-24T13:17:18;2.58;;;2.10;;
40827;SDS011;26549;50.918;5.338;2023-04-24T13:19:44;7.47;;;2.30;;
40827;SDS011;26549;50.918;5.338;2023-04-24T13:22:10;6.78;;;3.13;;
40827;SDS011;26549;50.918;5.338;2023-04-24T13:24:37;4.38;;;2.35;;
40827;SDS011;26549;50.918;5.338;2023-04-24T13:27:05;6.00;;;2.40;;
40827;SDS011;26549;50.918;5.338;2023-04-24T13:29:32;4.32;;;2.17;;
40827;SDS011;26549;50.918;5.338;2023-04-24T13:31:57;7.43;;;2.88;;
40827;SDS011;26549;50.918;5.338;2023-04-24T13:34:24;5.03;;;1.90;;
40827;SDS011;26549;50.918;5.338;2023-04-24T13:36:52;5.03;;;2.72;;
40827;SDS011;26549;50.918;5.338;2023-04-24T13:39:19;4.05;;;2.30;;
40827;SDS011;26549;50.918;5.338;2023-04-24T13:41:45;4.88;;;2.22;;
40827;SDS011;26549;50.918;5.338;2023-04-24T13:44:13;2.47;;;1.90;;
40827;SDS011;26549;50.918;5.338;2023-04-24T13:46:43;4.72;;;2.00;;
40827;SDS011;26549;50.918;5.338;2023-04-24T13:49:10;4.43;;;2.17;;
40827;SDS011;26549;50.918;5.338;2023-04-24T13:51:37;4.70;;;2.70;;
40827;SDS011;26549;50.918;5.338;2023-04-24T13:56:33;5.13;;;2.45;;
40827;SDS011;26549;50.918;5.338;2023-04-24T13:58:59;4.15;;;2.28;;
40827;SDS011;26549;50.918;5.338;2023-04-24T14:01:25;5.22;;;2.75;;
40827;SDS011;26549;50.918;5.338;2023-04-24T14:03:52;4.82;;;2.92;;
40827;SDS011;26549;50.918;5.338;2023-04-24T14:06:19;8.55;;;2.30;;
40827;SDS011;26549;50.918;5.338;2023-04-24T14:08:45;5.30;;;2.70;;
40827;SDS011;26549;50.918;5.338;2023-04-24T14:11:12;5.10;;;2.30;;
40827;SDS011;26549;50.918;5.338;2023-04-24T14:13:40;3.60;;;2.13;;
40827;SDS011;26549;50.918;5.338;2023-04-24T14:16:07;5.28;;;2.80;;
40827;SDS011;26549;50.918;5.338;2023-04-24T14:18:32;3.30;;;2.10;;
40827;SDS011;26549;50.918;5.338;2023-04-24T14:20:59;5.68;;;2.35;;
40827;SDS011;26549;50.918;5.338;2023-04-24T14:23:26;13.85;;;2.42;;
40827;SDS011;26549;50.918;5.338;2023-04-24T14:25:52;7.53;;;2.80;;
40827;SDS011;26549;50.918;5.338;2023-04-24T14:28:18;6.15;;;2.22;;
40827;SDS011;26549;50.918;5.338;2023-04-24T14:30:45;4.97;;;2.30;;
40827;SDS011;26549;50.918;5.338;2023-04-24T14:33:11;3.92;;;2.28;;
40827;SDS011;26549;50.918;5.338;2023-04-24T14:35:38;4.00;;;1.60;;
40827;SDS011;26549;50.918;5.338;2023-04-24T14:38:05;4.82;;;2.67;;
40827;SDS011;26549;50.918;5.338;2023-04-24T14:40:31;3.55;;;1.83;;
40827;SDS011;26549;50.918;5.338;2023-04-24T14:42:57;3.30;;;1.95;;
40827;SDS011;26549;50.918;5.338;2023-04-24T14:45:26;6.70;;;2.63;;
40827;SDS011;26549;50.918;5.338;2023-04-24T14:47:52;5.70;;;3.38;;
40827;SDS011;26549;50.918;5.338;2023-04-24T14:50:19;4.18;;;2.13;;
40827;SDS011;26549;50.918;5.338;2023-04-24T14:52:52;7.10;;;2.97;;
40827;SDS011;26549;50.918;5.338;2023-04-24T14:55:25;8.80;;;2.20;;
40827;SDS011;26549;50.918;5.338;2023-04-24T14:57:51;3.20;;;2.03;;
40827;SDS011;26549;50.918;5.338;2023-04-24T15:00:17;3.13;;;1.83;;
40827;SDS011;26549;50.918;5.338;2023-04-24T15:02:45;2.85;;;1.80;;
40827;SDS011;26549;50.918;5.338;2023-04-24T15:05:10;1.90;;;1.70;;
40827;SDS011;26549;50.918;5.338;2023-04-24T15:07:37;2.95;;;1.92;;
40827;SDS011;26549;50.918;5.338;2023-04-24T15:10:03;6.13;;;1.90;;
40827;SDS011;26549;50.918;5.338;2023-04-24T15:12:30;4.32;;;1.85;;
40827;SDS011;26549;50.918;5.338;2023-04-24T15:14:57;3.40;;;1.95;;
40827;SDS011;26549;50.918;5.338;2023-04-24T15:17:25;5.65;;;2.05;;
40827;SDS011;26549;50.918;5.338;2023-04-24T15:19:52;3.45;;;1.58;;
40827;SDS011;26549;50.918;5.338;2023-04-24T15:22:21;4.63;;;2.38;;
40827;SDS011;26549;50.918;5.338;2023-04-24T15:24:53;4.93;;;1.83;;
40827;SDS011;26549;50.918;5.338;2023-04-24T15:27:19;2.72;;;1.80;;
40827;SDS011;26549;50.918;5.338;2023-04-24T15:29:45;2.55;;;1.45;;
40827;SDS011;26549;50.918;5.338;2023-04-24T15:32:11;2.72;;;1.85;;
40827;SDS011;26549;50.918;5.338;2023-04-24T15:34:37;2.97;;;1.60;;
40827;SDS011;26549;50.918;5.338;2023-04-24T15:37:05;2.60;;;1.52;;
40827;SDS011;26549;50.918;5.338;2023-04-24T15:39:32;3.95;;;1.42;;
40827;SDS011;26549;50.918;5.338;2023-04-24T15:41:58;5.30;;;1.42;;